Time;durP1;ratioP1;P1;durP2;ratioP2;P2;SDS_P1;SDS_P2;PMS_P1;PMS_P2;Temp;Humidity;BMP_temperature;BMP_pressure;BME280_temperature;BME280_humidity;BME280_pressure;Samples;Min_cycle;Max_cycle;Signal;HPM_P1;HPM_P2
2021/12/17 00:04:39;;;;;;;433.70;41.88;;;8.40;99.90;;;;;;4996441;28;20034;-81
2021/12/17 00:07:14;;;;;;;394.55;41.63;;;8.40;99.90;;;;;;4991622;28;20084;-81
2021/12/17 00:09:40;;;;;;;;;;;8.40;99.90;;;;;;4993200;28;20042;-81
2021/12/17 00:12:11;;;;;;;448.20;43.38;;;;;;;;;;4990332;28;19944;-80
2021/12/17 00:14:38;;;;;;;361.00;38.85;;;;;;;;;;4985185;28;20337;-79
2021/12/17 00:17:09;;;;;;;376.38;40.85;;;;;;;;;;4989231;28;20086;-80
2021/12/17 00:49:19;;;;;;;171.05;31.98;;;;;;;;;;4992756;28;20046;-81
2021/12/17 00:51:57;;;;;;;162.02;31.67;;;;;;;;;;4990557;28;20042;-80
2021/12/17 00:54:33;;;;;;;210.27;35.13;;;;;;;;;;4994314;28;20030;-80
2021/12/17 00:57:02;;;;;;;204.63;32.85;;;;;;;;;;4988353;28;20031;-81
2021/12/17 00:59:28;;;;;;;198.55;33.33;;;;;;;;;;4981803;28;20264;-79
2021/12/17 01:01:56;;;;;;;178.90;33.65;;;;;;;;;;4991776;28;20050;-80
2021/12/17 01:04:22;;;;;;;194.43;32.90;;;;;;;;;;4989909;28;20172;-80
2021/12/17 01:06:48;;;;;;;208.52;35.53;;;;;;;;;;4996358;28;20315;-80
2021/12/17 01:09:16;;;;;;;217.45;36.30;;;;;;;;;;4999170;28;20090;-80
2021/12/17 01:11:43;;;;;;;219.80;34.70;;;;;;;;;;4999994;28;20044;-80
2021/12/17 01:14:10;;;;;;;217.13;35.80;;;;;;;;;;4995815;28;20114;-80
2021/12/17 01:16:36;;;;;;;217.82;35.80;;;;;;;;;;4996784;28;20038;-80
2021/12/17 01:20:13;;;;;;;275.05;38.20;;;;;;;;;;4996543;28;20034;-81
2021/12/17 01:22:12;;;;;;;267.48;37.22;;;;;;;;;;4987788;28;20026;-80
2021/12/17 01:24:48;;;;;;;306.40;40.92;;;;;;;;;;4997027;28;20030;-80
2021/12/17 01:35:30;;;;;;;487.53;48.80;;;;;;;;;;4997509;28;20039;-80
2021/12/17 01:39:02;;;;;;;474.40;48.13;;;;;;;;;;4981794;28;20035;-78
2021/12/17 01:43:17;;;;;;;527.42;50.15;;;;;;;;;;4994479;28;20472;-80
2021/12/17 01:45:44;;;;;;;333.05;39.97;;;;;;;;;;4998384;28;20152;-80
2021/12/17 01:48:14;;;;;;;239.48;34.17;;;;;;;;;;4997677;28;20046;-79
2021/12/17 02:01:29;;;;;;;285.98;33.72;;;7.10;99.90;;;;;;5002607;28;20050;-81
2021/12/17 02:03:56;;;;;;;260.63;34.42;;;;;;;;;;4980453;28;20050;-80
2021/12/17 02:06:23;;;;;;;229.43;30.50;;;;;;;;;;4996443;28;20065;-80
2021/12/17 02:08:52;;;;;;;212.15;30.17;;;;;;;;;;4986862;28;20338;-80
2021/12/17 02:19:46;;;;;;;252.45;30.92;;;;;;;;;;4998299;28;20081;-80
2021/12/17 02:32:47;;;;;;;250.93;27.35;;;;;;;;;;4996871;28;20208;-80
2021/12/17 02:37:45;;;;;;;274.23;27.70;;;;;;;;;;4994769;28;20136;-80
2021/12/17 02:45:33;;;;;;;297.17;28.20;;;;;;;;;;4998094;28;20291;-80
2021/12/17 02:48:02;;;;;;;305.58;28.98;;;;;;;;;;4990334;28;20216;-81
2021/12/17 02:50:28;;;;;;;276.48;24.10;;;;;;;;;;4995890;28;20030;-79
2021/12/17 02:52:56;;;;;;;276.27;25.08;;;;;;;;;;4983091;28;20057;-80
2021/12/17 02:55:22;;;;;;;219.57;20.05;;;;;;;;;;4993296;28;20416;-80
2021/12/17 02:57:49;;;;;;;198.07;17.38;;;;;;;;;;4995118;28;20109;-79
2021/12/17 03:00:16;;;;;;;180.40;18.05;;;;;;;;;;5001648;28;20042;-80
2021/12/17 03:02:42;;;;;;;181.23;16.52;;;;;;;;;;4995737;28;20282;-81
2021/12/17 03:05:09;;;;;;;212.60;18.48;;;;;;;;;;4995397;28;20065;-80
2021/12/17 03:07:39;;;;;;;192.75;16.70;;;;;;;;;;4996753;28;20033;-77
2021/12/17 03:10:08;;;;;;;169.75;15.82;;;;;;;;;;4991444;28;20085;-80
2021/12/17 03:12:42;;;;;;;193.82;16.05;;;;;;;;;;4991331;28;20046;-80
2021/12/17 03:25:53;;;;;;;116.22;13.48;;;;;;;;;;4998318;28;20038;-80
2021/12/17 03:28:19;;;;;;;135.15;15.20;;;;;;;;;;4995430;28;20323;-80
2021/12/17 03:30:46;;;;;;;120.40;15.57;;;;;;;;;;4992046;28;20431;-80
2021/12/17 03:33:12;;;;;;;124.93;13.88;;;;;;;;;;4983253;28;20099;-80
2021/12/17 03:35:39;;;;;;;138.38;15.30;;;;;;;;;;4997514;28;20045;-82
2021/12/17 03:38:06;;;;;;;129.70;15.63;;;;;;;;;;4996879;28;20022;-79
2021/12/17 03:40:33;;;;;;;144.60;16.90;;;;;;;;;;4996726;28;20377;-80
2021/12/17 03:43:11;;;;;;;164.45;17.88;;;;;;;;;;4992620;28;20031;-79
2021/12/17 03:45:37;;;;;;;154.00;17.23;;;;;;;;;;4995341;28;20552;-80
2021/12/17 03:48:03;;;;;;;366.88;28.45;;;;;;;;;;4993871;28;20078;-80
2021/12/17 03:50:33;;;;;;;137.10;15.98;;;;;;;;;;4988319;28;20113;-78
2021/12/17 03:52:59;;;;;;;181.07;17.63;;;;;;;;;;4995738;28;20387;-80
2021/12/17 03:55:25;;;;;;;134.55;15.95;;;;;;;;;;5001565;28;20259;-79
2021/12/17 03:57:52;;;;;;;151.00;17.50;;;;;;;;;;4997828;28;20092;-80
2021/12/17 04:00:18;;;;;;;177.90;18.30;;;;;;;;;;5000368;28;20218;-80
2021/12/17 04:02:45;;;;;;;154.55;18.00;;;;;;;;;;4996471;28;20085;-80
2021/12/17 04:05:11;;;;;;;154.80;18.25;;;;;;;;;;4991541;28;20264;-80
2021/12/17 04:07:37;;;;;;;142.55;17.80;;;;;;;;;;4992728;28;20026;-79
2021/12/17 04:10:04;;;;;;;1965.90;292.20;;;;;;;;;;4987650;28;20041;-80
2021/12/17 04:15:13;;;;;;;159.13;18.48;;;;;;;;;;4995508;28;20045;-80
2021/12/17 04:17:58;;;;;;;160.57;18.85;;;;;;;;;;4996543;28;20062;-80
2021/12/17 04:20:24;;;;;;;158.13;18.92;;;7.40;99.90;;;;;;4996319;28;20073;-81
2021/12/17 04:22:50;;;;;;;143.57;18.55;;;;;;;;;;4987908;28;20287;-81
2021/12/17 04:25:17;;;;;;;148.88;18.50;;;;;;;;;;4994481;28;20045;-80
2021/12/17 04:27:43;;;;;;;167.45;18.92;;;7.90;99.90;;;;;;4988978;28;20042;-81
2021/12/17 04:30:09;;;;;;;153.18;18.30;;;;;;;;;;4990811;28;20030;-79
2021/12/17 04:32:35;;;;;;;134.32;17.42;;;;;;;;;;4976979;28;20049;-78
2021/12/17 04:35:03;;;;;;;137.32;17.42;;;;;;;;;;4978619;28;20759;-80
2021/12/17 04:37:29;;;;;;;133.32;18.10;;;;;;;;;;4992600;28;20269;-80
2021/12/17 04:39:55;;;;;;;153.77;18.23;;;8.00;99.90;;;;;;4978302;28;20031;-80
2021/12/17 04:45:06;;;;;;;137.93;17.02;;;8.00;99.90;;;;;;4995157;28;20157;-80
2021/12/17 04:58:32;;;;;;;107.35;14.15;;;;;;;;;;4995132;28;20034;-80
2021/12/17 05:01:00;;;;;;;1506.68;222.32;;;;;;;;;;4999266;28;20088;-80
2021/12/17 05:03:26;;;;;;;135.93;17.85;;;;;;;;;;4995493;28;20053;-79
2021/12/17 05:05:53;;;;;;;132.13;13.15;;;;;;;;;;4998770;28;20164;-81
2021/12/17 05:08:22;;;;;;;139.88;18.63;;;;;;;;;;5005516;28;20066;-80
2021/12/17 05:11:12;;;;;;;151.55;19.73;;;;;;;;;;4980527;28;20066;-80
2021/12/17 05:19:37;;;;;;;187.47;19.30;;;;;;;;;;4991860;28;20054;-81
2021/12/17 05:22:08;;;;;;;172.45;19.45;;;;;;;;;;4959437;28;1115663;-79
2021/12/17 05:24:35;;;;;;;188.75;21.90;;;;;;;;;;5009870;28;20264;-80
2021/12/17 05:27:01;;;;;;;114.50;16.80;;;;;;;;;;4999788;28;20050;-80
2021/12/17 05:29:27;;;;;;;135.65;17.95;;;;;;;;;;4998356;28;20045;-81
2021/12/17 05:31:53;;;;;;;216.93;21.92;;;;;;;;;;4996616;28;20082;-80
2021/12/17 05:34:19;;;;;;;131.88;17.73;;;;;;;;;;4995157;28;20251;-80
2021/12/17 05:36:45;;;;;;;89.25;15.63;;;;;;;;;;4972361;28;20050;-80
2021/12/17 05:39:12;;;;;;;107.18;16.10;;;;;;;;;;4994288;28;20109;-79
2021/12/17 05:41:38;;;;;;;97.47;16.25;;;;;;;;;;4995759;28;20053;-81
2021/12/17 05:44:04;;;;;;;97.30;17.45;;;;;;;;;;4977588;28;20039;-81
2021/12/17 05:47:03;;;;;;;112.03;18.10;;;;;;;;;;4986086;28;20046;-81
2021/12/17 05:49:24;;;;;;;113.10;18.80;;;;;;;;;;4993300;28;20042;-80
2021/12/17 05:51:51;;;;;;;116.63;18.58;;;;;;;;;;4984800;28;20030;-79
2021/12/17 05:54:18;;;;;;;114.18;18.70;;;;;;;;;;4988186;28;20066;-81
2021/12/17 05:56:45;;;;;;;99.93;16.95;;;;;;;;;;4995518;28;20073;-80
2021/12/17 05:59:11;;;;;;;96.38;18.17;;;;;;;;;;4998612;28;20140;-77
2021/12/17 06:01:37;;;;;;;81.03;15.95;;;;;;;;;;4981787;28;20045;-80
2021/12/17 06:04:04;;;;;;;95.50;17.63;;;;;;;;;;4994989;28;20155;-80
2021/12/17 06:06:35;;;;;;;98.47;18.15;;;;;;;;;;4986958;28;20026;-82
2021/12/17 06:09:07;;;;;;;90.00;16.90;;;;;;;;;;4996198;28;20027;-81
2021/12/17 06:11:34;;;;;;;85.68;17.17;;;;;;;;;;5001081;28;20264;-81
2021/12/17 06:14:00;;;;;;;96.43;18.48;;;;;;;;;;4997098;28;20156;-80
2021/12/17 06:16:27;;;;;;;92.18;17.42;;;;;;;;;;4995964;28;20034;-80
2021/12/17 06:18:54;;;;;;;88.93;16.30;;;;;;;;;;4995334;28;20098;-81
2021/12/17 06:21:20;;;;;;;93.90;18.05;;;;;;;;;;4994094;28;20058;-81
2021/12/17 06:23:46;;;;;;;99.20;17.20;;;;;;;;;;4970617;28;20063;-77
2021/12/17 06:26:12;;;;;;;95.22;16.60;;;;;;;;;;4993280;28;20088;-81
2021/12/17 06:28:39;;;;;;;89.45;17.13;;;;;;;;;;4998158;28;20042;-80
2021/12/17 06:31:06;;;;;;;246.63;32.38;;;;;;;;;;4997856;28;20268;-81
2021/12/17 06:33:32;;;;;;;99.65;17.20;;;;;;;;;;4993571;28;20146;-81
2021/12/17 06:35:58;;;;;;;98.57;17.70;;;;;;;;;;4997642;28;20284;-81
2021/12/17 06:38:24;;;;;;;94.93;17.35;;;;;;;;;;4984273;28;20048;-80
2021/12/17 06:40:53;;;;;;;85.95;17.20;;;;;;;;;;4988299;28;20102;-78
2021/12/17 06:43:27;;;;;;;82.80;17.05;;;;;;;;;;4985780;28;20077;-81
2021/12/17 06:46:00;;;;;;;88.38;17.77;;;;;;;;;;4996276;28;20168;-81
2021/12/17 06:48:29;;;;;;;92.43;17.83;;;;;;;;;;4997598;28;20068;-80
2021/12/17 06:59:22;;;;;;;81.88;17.55;;;;;;;;;;4989633;28;20214;-79
2021/12/17 07:07:47;;;;;;;77.13;17.55;;;;;;;;;;4997310;28;20109;-80
2021/12/17 07:19:03;;;;;;;83.43;16.73;;;;;;;;;;4997999;28;20101;-80
2021/12/17 07:35:24;;;;;;;82.20;16.67;;;;;;;;;;4990962;28;20267;-81
2021/12/17 07:39:54;;;;;;;92.38;19.83;;;;;;;;;;4997630;28;20456;-80
2021/12/17 07:42:20;;;;;;;84.25;21.20;;;;;;;;;;4995153;28;20101;-80
2021/12/17 07:44:46;;;;;;;93.20;22.10;;;;;;;;;;4996925;28;20034;-80
2021/12/17 07:47:12;;;;;;;101.28;23.55;;;;;;;;;;4982138;28;20164;-80
2021/12/17 07:49:38;;;;;;;98.30;21.88;;;;;;;;;;4983812;28;20046;-80
2021/12/17 07:52:05;;;;;;;110.45;23.80;;;;;;;;;;4994370;28;20248;-81
2021/12/17 07:54:31;;;;;;;98.45;20.88;;;;;;;;;;4980349;28;20035;-81
2021/12/17 07:56:57;;;;;;;114.05;24.38;;;;;;;;;;4992374;28;20507;-80
2021/12/17 07:59:23;;;;;;;99.30;21.23;;;;;;;;;;4976351;28;20038;-80
2021/12/17 08:01:49;;;;;;;85.45;18.48;;;;;;;;;;4993295;28;20042;-81
2021/12/17 08:04:15;;;;;;;92.45;18.73;;;;;;;;;;4998764;28;20246;-81
2021/12/17 08:06:41;;;;;;;79.15;18.65;;;;;;;;;;4987300;28;20019;-81
2021/12/17 08:09:07;;;;;;;82.28;19.50;;;;;;;;;;4982170;28;20322;-83
2021/12/17 08:11:38;;;;;;;70.13;17.48;;;8.30;99.90;;;;;;4994138;28;20183;-79
2021/12/17 08:14:10;;;;;;;97.22;20.15;;;;;;;;;;4979448;28;20026;-81
2021/12/17 08:16:44;;;;;;;58.33;16.58;;;;;;;;;;4978301;28;20236;-81
2021/12/17 08:24:54;;;;;;;62.85;15.52;;;;;;;;;;4990593;28;20176;-82
2021/12/17 08:32:34;;;;;;;46.80;14.88;;;;;;;;;;4988828;28;20245;-82
2021/12/17 08:35:00;;;;;;;54.28;15.15;;;;;;;;;;4977391;28;20026;-81
2021/12/17 08:37:28;;;;;;;55.17;14.88;;;;;;;;;;4992995;28;20034;-82
2021/12/17 08:39:55;;;;;;;43.85;13.57;;;;;;;;;;4994729;28;20026;-83
2021/12/17 08:42:21;;;;;;;47.75;14.25;;;;;;;;;;4995891;28;20030;-81
2021/12/17 08:44:47;;;;;;;41.42;13.15;;;;;;;;;;4992224;28;20046;-81
2021/12/17 08:47:13;;;;;;;29.60;11.60;;;;;;;;;;4987990;28;20073;-81
2021/12/17 08:49:41;;;;;;;35.75;13.02;;;;;;;;;;4994603;28;20160;-82
2021/12/17 08:52:08;;;;;;;37.40;13.52;;;;;;;;;;4993254;28;20212;-82
2021/12/17 08:54:34;;;;;;;32.92;11.95;;;;;;;;;;4995775;28;20030;-82
2021/12/17 08:57:00;;;;;;;29.20;10.77;;;;;;;;;;4992515;28;20315;-83
2021/12/17 08:59:29;;;;;;;32.78;11.95;;;;;;;;;;4994799;28;20029;-83
2021/12/17 09:01:55;;;;;;;29.42;11.10;;;;;;;;;;4992027;28;20057;-82
2021/12/17 09:04:21;;;;;;;28.25;9.95;;;;;;;;;;4995029;28;20057;-82
2021/12/17 09:06:47;;;;;;;20.73;9.27;;;;;;;;;;4996694;28;20088;-82
2021/12/17 09:09:18;;;;;;;16.85;8.48;;;;;;;;;;4982688;28;20038;-79
2021/12/17 09:11:45;;;;;;;13.73;6.68;;;;;;;;;;4995024;28;20034;-81
2021/12/17 09:14:11;;;;;;;9.20;5.20;;;9.20;99.90;;;;;;4980691;28;20026;-82
2021/12/17 09:16:37;;;;;;;3.13;2.28;;;;;;;;;;4990859;28;20244;-81
2021/12/17 09:19:04;;;;;;;7.70;4.85;;;9.10;99.90;;;;;;4998020;28;20031;-82
2021/12/17 09:21:31;;;;;;;120.07;11.90;;;;;;;;;;4978874;28;20030;-81
2021/12/17 09:23:57;;;;;;;15.40;6.57;;;;;;;;;;5002964;28;20173;-81
2021/12/17 09:26:23;;;;;;;12.88;6.95;;;;;;;;;;4987984;28;21086;-82
2021/12/17 09:28:50;;;;;;;14.35;7.22;;;;;;;;;;4989923;28;20069;-82
2021/12/17 09:31:16;;;;;;;14.93;6.97;;;;;;;;;;4977350;28;20130;-81
2021/12/17 09:33:45;;;;;;;10.27;6.43;;;;;;;;;;5010431;28;20129;-81
2021/12/17 09:36:11;;;;;;;9.52;6.07;;;;;;;;;;4996843;28;20038;-82
2021/12/17 09:38:38;;;;;;;10.80;6.32;;;;;;;;;;4996433;28;20149;-82
2021/12/17 09:41:04;;;;;;;8.75;5.10;;;;;;;;;;4995472;28;20022;-82
2021/12/17 09:43:32;;;;;;;9.43;5.50;;;;;;;;;;4998095;28;20101;-82
2021/12/17 09:45:58;;;;;;;11.98;6.65;;;;;;;;;;4989375;28;20117;-81
2021/12/17 09:48:24;;;;;;;10.48;5.80;;;;;;;;;;4994805;28;20037;-82
2021/12/17 09:50:52;;;;;;;12.75;7.00;;;;;;;;;;5008800;28;20037;-81
2021/12/17 09:53:19;;;;;;;12.25;6.35;;;;;;;;;;4994072;28;20034;-82
2021/12/17 09:55:45;;;;;;;10.57;6.15;;;;;;;;;;4991801;28;20058;-82
2021/12/17 09:58:11;;;;;;;20.92;7.07;;;;;;;;;;5010874;28;20089;-82
2021/12/17 10:00:37;;;;;;;10.48;5.32;;;;;;;;;;4993876;28;20031;-82
2021/12/17 10:03:07;;;;;;;7.53;5.07;;;9.50;99.90;;;;;;5012319;28;20313;-80
2021/12/17 10:05:35;;;;;;;9.20;5.30;;;;;;;;;;4973907;28;20276;-83
2021/12/17 10:08:21;;;;;;;8.10;4.95;;;;;;;;;;4997038;28;20208;-82
2021/12/17 10:10:49;;;;;;;7.28;4.68;;;;;;;;;;4997611;28;20057;-82
2021/12/17 10:13:16;;;;;;;7.55;4.60;;;;;;;;;;4997988;28;20031;-79
2021/12/17 10:15:44;;;;;;;8.10;5.10;;;;;;;;;;4997180;28;20042;-83
2021/12/17 10:18:10;;;;;;;5.22;4.45;;;;;;;;;;4990890;28;20191;-82
2021/12/17 10:20:53;;;;;;;5.85;4.60;;;;;;;;;;4996364;28;20197;-83
2021/12/17 10:23:21;;;;;;;7.32;4.03;;;;;;;;;;4994671;28;20146;-82
2021/12/17 10:25:47;;;;;;;6.90;5.22;;;;;;;;;;4997310;28;20077;-83
2021/12/17 10:28:14;;;;;;;6.78;5.13;;;;;;;;;;4994669;28;20037;-81
2021/12/17 10:30:42;;;;;;;447.83;81.15;;;;;;;;;;4997317;28;20035;-82
2021/12/17 10:33:13;;;;;;;8.50;5.93;;;;;;;;;;4997581;28;20034;-82
2021/12/17 10:35:44;;;;;;;9.10;5.32;;;;;;;;;;4980755;28;20047;-83
2021/12/17 10:38:14;;;;;;;6.93;5.25;;;9.60;99.90;;;;;;4997657;28;20101;-82
2021/12/17 10:40:44;;;;;;;6.05;5.20;;;;;;;;;;5012202;28;20030;-81
2021/12/17 10:43:26;;;;;;;6.10;5.07;;;;;;;;;;4980723;28;20077;-82
2021/12/17 10:46:01;;;;;;;9.05;5.72;;;;;;;;;;4985682;28;20278;-82
2021/12/17 10:48:32;;;;;;;7.05;5.55;;;;;;;;;;4995386;28;20044;-82
2021/12/17 10:51:21;;;;;;;7.57;6.07;;;;;;;;;;4993520;28;20058;-82
2021/12/17 10:53:53;;;;;;;7.00;5.45;;;;;;;;;;4994766;28;20038;-82
2021/12/17 10:56:24;;;;;;;7.45;4.82;;;9.70;99.90;;;;;;4995445;28;20213;-83
2021/12/17 10:58:54;;;;;;;8.52;5.95;;;;;;;;;;4993963;28;20114;-82
2021/12/17 11:01:27;;;;;;;9.73;5.97;;;;;;;;;;4993802;28;20023;-84
2021/12/17 11:04:03;;;;;;;7.03;5.38;;;;;;;;;;4995642;28;20568;-85
2021/12/17 11:09:05;;;;;;;9.75;6.07;;;;;;;;;;3046662;23;20086;-77
2021/12/17 11:11:33;;;;;;;9.20;5.80;;;;;;;;;;4939134;28;20043;-77
2021/12/17 11:14:00;;;;;;;8.35;5.93;;;;;;;;;;4958904;28;20046;-77
2021/12/17 11:16:27;;;;;;;8.20;5.85;;;;;;;;;;4960712;28;20153;-76
2021/12/17 11:18:53;;;;;;;17.20;6.85;;;;;;;;;;4930420;28;20039;-77
2021/12/17 11:21:21;;;;;;;9.40;6.00;;;;;;;;;;4937911;28;20038;-76
2021/12/17 11:23:48;;;;;;;9.63;6.35;;;;;;;;;;4954178;28;20479;-76
2021/12/17 11:26:35;;;;;;;8.05;5.97;;;;;;;;;;4963852;28;20054;-76
2021/12/17 11:29:03;;;;;;;7.63;5.68;;;;;;;;;;4952561;28;20038;-76
2021/12/17 11:31:32;;;;;;;8.27;5.07;;;;;;;;;;4957316;28;20081;-76
2021/12/17 11:34:00;;;;;;;8.65;6.00;;;;;;;;;;4973185;28;20042;-76
2021/12/17 11:36:28;;;;;;;10.13;6.13;;;;;;;;;;4942873;28;20038;-76
2021/12/17 11:38:55;;;;;;;8.93;6.15;;;;;;;;;;4971964;28;20114;-76
2021/12/17 11:41:30;;;;;;;10.10;7.03;;;;;;;;;;4960444;28;20456;-76
2021/12/17 11:43:59;;;;;;;10.15;7.30;;;;;;;;;;4959431;28;20050;-76
2021/12/17 11:46:27;;;;;;;7.80;6.00;;;;;;;;;;4960566;28;20074;-76
2021/12/17 11:49:04;;;;;;;12.00;6.85;;;;;;;;;;4961371;28;20475;-76
2021/12/17 11:51:32;;;;;;;7.93;5.57;;;;;;;;;;4960315;28;20042;-81
2021/12/17 11:54:00;;;;;;;6.97;5.35;;;;;;;;;;4961025;28;20058;-83
2021/12/17 11:56:35;;;;;;;9.95;5.95;;;;;;;;;;4960142;28;20046;-76
2021/12/17 11:59:02;;;;;;;9.45;5.40;;;;;;;;;;4978420;28;20042;-76
2021/12/17 12:01:48;;;;;;;7.03;4.68;;;;;;;;;;4960789;28;20133;-76
2021/12/17 12:04:23;;;;;;;7.38;4.50;;;;;;;;;;4959006;28;20100;-76
2021/12/17 12:07:05;;;;;;;6.43;4.57;;;;;;;;;;4959235;28;20421;-76
2021/12/17 12:09:58;;;;;;;8.15;4.97;;;;;;;;;;4957342;28;20474;-75
2021/12/17 12:12:26;;;;;;;6.70;4.85;;;;;;;;;;4976219;28;20043;-76
2021/12/17 12:14:52;;;;;;;7.00;5.15;;;;;;;;;;4958207;28;20575;-76
2021/12/17 12:17:39;;;;;;;8.45;5.70;;;;;;;;;;4958489;28;20043;-75
2021/12/17 12:20:05;;;;;;;7.68;5.15;;;;;;;;;;4937773;28;20050;-76
2021/12/17 12:22:31;;;;;;;5.63;4.78;;;;;;;;;;4943981;28;20105;-76
2021/12/17 12:25:20;;;;;;;9.10;5.00;;;;;;;;;;4959127;28;20043;-76
2021/12/17 12:27:47;;;;;;;6.40;4.97;;;;;;;;;;4943388;28;20482;-76
2021/12/17 12:30:14;;;;;;;8.38;4.68;;;;;;;;;;4960715;28;20423;-76
2021/12/17 12:32:59;;;;;;;6.00;4.72;;;;;;;;;;4959244;28;20070;-76
2021/12/17 12:35:25;;;;;;;6.95;4.80;;;;;;;;;;4959399;28;20450;-76
2021/12/17 12:38:11;;;;;;;6.50;4.53;;;;;;;;;;4960342;28;20046;-76
2021/12/17 12:40:44;;;;;;;7.18;5.03;;;;;;;;;;4958994;28;20031;-76
2021/12/17 12:43:24;;;;;;;6.18;4.40;;;;;;;;;;4958262;28;20367;-76
2021/12/17 12:45:51;;;;;;;5.75;4.28;;;;;;;;;;4975588;28;20097;-76
2021/12/17 12:48:42;;;;;;;5.88;3.85;;;;;;;;;;4959566;28;20564;-76
2021/12/17 12:51:14;;;;;;;6.00;4.28;;;;;;;;;;4960160;28;20102;-76
2021/12/17 12:53:46;;;;;;;5.95;4.20;;;;;;;;;;4959863;28;20043;-76
2021/12/17 12:56:20;;;;;;;5.80;3.60;;;;;;;;;;4975952;28;20058;-76
2021/12/17 12:58:50;;;;;;;4.32;3.70;;;;;;;;;;4960832;28;20426;-76
2021/12/17 13:01:17;;;;;;;5.00;3.70;;;;;;;;;;4961336;28;20123;-76
2021/12/17 13:03:44;;;;;;;6.60;3.97;;;;;;;;;;4945992;28;20149;-76
2021/12/17 13:06:16;;;;;;;4.78;4.13;;;;;;;;;;4934490;28;20039;-76
2021/12/17 13:08:42;;;;;;;5.55;4.13;;;;;;;;;;4963893;28;20173;-76
2021/12/17 13:11:12;;;;;;;6.78;3.92;;;;;;;;;;4963696;28;20153;-76
2021/12/17 13:13:52;;;;;;;5.00;4.20;;;;;;;;;;4961767;28;20039;-76
2021/12/17 13:59:50;;;;;;;5.93;4.40;;;;;;;;;;5106974;27;20543;-76
2021/12/17 14:02:16;;;;;;;5.85;5.00;;;;;;;;;;5075421;28;20054;-76
2021/12/17 14:04:43;;;;;;;7.53;5.63;;;;;;;;;;5073514;28;20040;-76
2021/12/17 14:07:11;;;;;;;6.55;5.13;;;9.80;99.90;;;;;;5076135;28;20044;-76
2021/12/17 14:09:37;;;;;;;6.10;4.63;;;;;;;;;;5056388;28;20036;-76
2021/12/17 14:12:27;;;;;;;9.63;6.20;;;;;;;;;;5069952;28;20823;-76
2021/12/17 14:14:58;;;;;;;11.73;6.90;;;;;;;;;;5091397;28;20525;-76
2021/12/17 14:17:24;;;;;;;12.88;7.20;;;;;;;;;;5056600;28;20032;-76
2021/12/17 14:19:53;;;;;;;11.02;6.65;;;;;;;;;;5059882;28;20040;-76
2021/12/17 14:22:27;;;;;;;13.10;7.07;;;;;;;;;;5074991;28;20083;-76
2021/12/17 14:24:58;;;;;;;9.70;6.43;;;;;;;;;;5072548;28;20410;-76
2021/12/17 14:27:42;;;;;;;7.25;5.20;;;;;;;;;;5075205;28;20059;-76
2021/12/17 14:30:08;;;;;;;8.77;6.07;;;;;;;;;;5054323;28;20386;-76
2021/12/17 14:32:43;;;;;;;7.95;5.75;;;9.60;99.90;;;;;;5069550;28;20040;-76
2021/12/17 14:35:09;;;;;;;6.85;5.80;;;9.90;99.90;;;;;;5057715;28;20490;-76
2021/12/17 14:37:46;;;;;;;7.85;6.25;;;;;;;;;;5051033;28;20039;-76
2021/12/17 14:40:26;;;;;;;10.00;6.43;;;;;;;;;;5053328;28;20052;-76
2021/12/17 14:42:56;;;;;;;6.85;5.72;;;;;;;;;;5070387;28;20047;-76
2021/12/17 14:45:31;;;;;;;9.32;6.35;;;;;;;;;;5060766;28;20044;-76
2021/12/17 14:47:58;;;;;;;;;;;;;;;;;;5075748;28;20044;-76
2021/12/17 15:06:01;;;;;;;9.93;6.65;;;;;;;;;;5046804;28;20045;-76
2021/12/17 15:08:29;;;;;;;11.35;6.22;;;9.40;99.90;;;;;;5044959;28;20102;-76
2021/12/17 15:10:56;;;;;;;10.57;7.35;;;;;;;;;;5062168;28;20491;-76
2021/12/17 15:13:22;;;;;;;10.85;6.45;;;;;;;;;;5065242;28;20051;-76
2021/12/17 15:15:49;;;;;;;11.77;6.20;;;;;;;;;;5059697;28;20067;-76
2021/12/17 15:18:19;;;;;;;9.90;7.30;;;;;;;;;;5046717;28;20048;-76
2021/12/17 15:20:50;;;;;;;14.85;7.50;;;;;;;;;;5059227;28;20040;-76
2021/12/17 15:23:17;;;;;;;12.45;7.68;;;;;;;;;;5093629;28;20036;-76
2021/12/17 15:25:44;;;;;;;11.23;7.05;;;9.30;99.90;;;;;;5048832;28;20046;-76
2021/12/17 15:28:12;;;;;;;10.18;7.55;;;9.20;99.90;;;;;;5047155;28;20037;-76
2021/12/17 15:30:41;;;;;;;12.65;8.07;;;;;;;;;;5047236;28;20411;-76
2021/12/17 15:33:07;;;;;;;12.43;8.02;;;;;;;;;;5065998;28;20036;-76
2021/12/17 15:35:33;;;;;;;12.30;7.47;;;;;;;;;;5057486;28;20175;-76
2021/12/17 15:38:00;;;;;;;12.48;9.32;;;;;;;;;;5052253;28;20036;-76
2021/12/17 15:40:27;;;;;;;11.95;7.75;;;;;;;;;;5056881;28;20059;-77
2021/12/17 15:43:02;;;;;;;10.15;7.20;;;;;;;;;;5066678;28;20044;-76
2021/12/17 15:45:28;;;;;;;10.95;6.85;;;;;;;;;;5053267;28;20040;-76
2021/12/17 15:47:54;;;;;;;11.52;7.95;;;;;;;;;;5058954;28;20040;-76
2021/12/17 15:50:20;;;;;;;12.80;7.47;;;;;;;;;;5057833;28;20040;-76
2021/12/17 15:52:47;;;;;;;12.63;7.95;;;;;;;;;;5054377;28;20040;-76
2021/12/17 15:55:24;;;;;;;11.60;7.80;;;;;;;;;;5035515;28;20529;-76
2021/12/17 15:57:53;;;;;;;13.85;8.85;;;;;;;;;;5054247;28;20495;-76
2021/12/17 16:00:21;;;;;;;22.10;9.65;;;;;;;;;;5062232;28;20056;-76
2021/12/17 16:02:47;;;;;;;29.67;11.80;;;;;;;;;;5052813;28;20072;-76
2021/12/17 16:05:14;;;;;;;31.52;13.05;;;;;;;;;;5062209;28;20123;-76
2021/12/17 16:07:42;;;;;;;36.85;13.40;;;;;;;;;;5089017;28;20037;-76
2021/12/17 16:23:09;;;;;;;47.33;16.87;;;9.20;99.90;;;;;;5070432;28;20043;-76
2021/12/17 16:25:35;;;;;;;41.58;15.30;;;;;;;;;;5063062;28;20040;-76
2021/12/17 16:28:02;;;;;;;36.47;12.98;;;;;;;;;;5046403;28;20655;-76
2021/12/17 16:30:28;;;;;;;42.25;14.90;;;;;;;;;;5045847;28;20097;-76
2021/12/17 16:32:54;;;;;;;32.75;14.13;;;;;;;;;;5065694;28;20032;-76
2021/12/17 16:35:20;;;;;;;32.78;13.27;;;;;;;;;;5059847;28;20037;-76
2021/12/17 16:37:46;;;;;;;25.48;11.55;;;;;;;;;;5043633;28;20036;-76
2021/12/17 16:40:13;;;;;;;407.40;49.65;;;;;;;;;;5096021;28;20058;-76
2021/12/17 16:42:40;;;;;;;36.80;13.70;;;;;;;;;;5057881;28;20040;-76
2021/12/17 16:45:31;;;;;;;35.83;13.75;;;;;;;;;;5047531;28;20643;-76
2021/12/17 16:48:03;;;;;;;29.60;10.55;;;;;;;;;;5054331;28;20102;-76
2021/12/17 16:50:31;;;;;;;36.53;13.02;;;;;;;;;;5049946;28;20052;-76
2021/12/17 16:52:58;;;;;;;37.17;12.43;;;;;;;;;;5084266;28;20294;-75
2021/12/17 16:55:25;;;;;;;37.10;12.38;;;;;;;;;;5056041;28;20040;-76
2021/12/17 16:57:51;;;;;;;36.35;12.15;;;;;;;;;;5055783;28;20040;-76
2021/12/17 17:00:17;;;;;;;31.00;11.13;;;;;;;;;;5044091;28;20052;-75
2021/12/17 17:02:44;;;;;;;37.83;12.10;;;;;;;;;;5067815;28;20083;-76
2021/12/17 17:05:10;;;;;;;34.42;11.18;;;8.70;99.90;;;;;;5051698;28;20037;-75
2021/12/17 17:07:36;;;;;;;33.17;11.43;;;;;;;;;;5057937;28;20056;-76
2021/12/17 17:10:02;;;;;;;37.55;11.15;;;;;;;;;;5056776;28;20044;-75
2021/12/17 17:12:31;;;;;;;38.10;11.70;;;;;;;;;;5046573;28;20074;-76
2021/12/17 17:14:57;;;;;;;34.83;10.95;;;;;;;;;;5057212;28;20040;-76
2021/12/17 17:17:23;;;;;;;38.28;11.07;;;;;;;;;;5059238;28;20257;-76
2021/12/17 17:19:49;;;;;;;32.88;10.77;;;;;;;;;;5046171;28;20121;-76
2021/12/17 17:22:16;;;;;;;32.00;11.15;;;;;;;;;;5039424;28;20040;-76
2021/12/17 17:24:42;;;;;;;31.25;10.60;;;;;;;;;;5043329;28;20059;-75
2021/12/17 17:27:08;;;;;;;25.48;9.52;;;;;;;;;;5055566;28;20590;-76
2021/12/17 17:29:35;;;;;;;22.27;8.85;;;;;;;;;;5065750;28;20040;-75
2021/12/17 17:32:01;;;;;;;20.30;8.27;;;;;;;;;;5056237;28;20045;-76
2021/12/17 17:34:28;;;;;;;25.73;9.00;;;;;;;;;;5041539;28;20036;-75
2021/12/17 17:36:55;;;;;;;24.33;8.70;;;;;;;;;;5036597;28;20396;-76
2021/12/17 17:39:21;;;;;;;27.60;9.23;;;8.40;99.90;;;;;;5049598;28;20395;-75
2021/12/17 17:41:47;;;;;;;24.48;8.27;;;;;;;;;;5072053;28;20097;-75
2021/12/17 17:44:13;;;;;;;17.98;7.43;;;;;;;;;;5043737;28;20040;-74
2021/12/17 17:46:40;;;;;;;17.35;7.13;;;;;;;;;;5047885;28;20282;-74
2021/12/17 17:49:08;;;;;;;18.35;6.45;;;;;;;;;;5060170;28;20075;-74
2021/12/17 17:51:34;;;;;;;12.52;5.40;;;;;;;;;;5044796;28;20041;-75
2021/12/17 17:54:00;;;;;;;19.20;6.03;;;;;;;;;;5037137;28;20043;-75
2021/12/17 17:56:26;;;;;;;15.20;5.50;;;;;;;;;;5058914;28;20052;-75
2021/12/17 17:58:53;;;;;;;13.82;5.72;;;;;;;;;;5046991;28;20075;-75
2021/12/17 18:01:19;;;;;;;17.23;5.38;;;;;;;;;;5057458;28;20071;-75
2021/12/17 18:03:45;;;;;;;14.20;5.05;;;;;;;;;;5042964;28;20033;-75
2021/12/17 18:06:11;;;;;;;14.73;5.38;;;;;;;;;;5051725;28;20036;-75
2021/12/17 18:08:39;;;;;;;16.05;5.20;;;;;;;;;;5052816;28;20043;-75
2021/12/17 18:11:06;;;;;;;22.10;6.18;;;;;;;;;;5039519;28;20116;-75
2021/12/17 18:13:33;;;;;;;12.43;4.22;;;;;;;;;;5047737;28;20107;-75
2021/12/17 18:16:00;;;;;;;17.17;5.30;;;;;;;;;;5049224;28;20115;-75
2021/12/17 18:18:27;;;;;;;19.23;5.18;;;;;;;;;;5039407;28;20043;-75
2021/12/17 18:20:53;;;;;;;17.98;5.30;;;;;;;;;;5050582;28;20512;-75
2021/12/17 18:23:20;;;;;;;16.42;5.25;;;;;;;;;;5051613;28;20340;-75
2021/12/17 18:25:48;;;;;;;7.35;3.20;;;;;;;;;;5051807;28;20198;-75